Aviation Digital Data Service (ADDS)

Output produced by METARs form (1428 UTC 22 April 2021)
found at http://aviationweather.gov/metar/data/
 
METAR text: EHGG 221425Z AUTO 34011KT 290V030 9999 BKN029 OVC033 08/01 Q1026 NOSIG
Conditions at: EHGG (GRONINGEN/EELDE , NL) observed 1425 UTC 22 April 2021
Temperature: 8.0°C (46°F)
Dewpoint: 1.0°C (34°F) [RH = 61%]
Pressure (altimeter): 30.30 inches Hg (1026.0 mb)
Winds: from the NNW (340 degrees) at 13 MPH (11 knots; 5.7 m/s)
Visibility: 6 or more miles (10+ km)
Ceiling: 2900 feet AGL
Clouds: broken clouds at 2900 feet AGL
overcast cloud deck at 3300 feet AGL
Weather: no significant weather observed at this time

METAR text: EHGG 221355Z AUTO 33011KT 280V020 9999 BKN031 OVC035 09/01 Q1026 NOSIG
Conditions at: EHGG (GRONINGEN/EELDE , NL) observed 1355 UTC 22 April 2021
Temperature: 9.0°C (48°F)
Dewpoint: 1.0°C (34°F) [RH = 57%]
Pressure (altimeter): 30.30 inches Hg (1026.0 mb)
Winds: from the NNW (330 degrees) at 13 MPH (11 knots; 5.7 m/s)
Visibility: 6 or more miles (10+ km)
Ceiling: 3100 feet AGL
Clouds: broken clouds at 3100 feet AGL
overcast cloud deck at 3500 feet AGL
Weather: no significant weather observed at this time

Forecast for: EHGG (GRONINGEN/EELDE , NL)
Text: TAF EHGG 221020Z 2212/2318 34008KT 9999 SCT035
Forecast period: 1200 UTC 22 April 2021 to 1800 UTC 23 April 2021
Forecast type: FROM: standard forecast or significant change
Winds: from the NNW (340 degrees) at 9 MPH (8 knots; 4.1 m/s)
Visibility: 6 or more miles (10+ km)
Ceiling: at least 12,000 feet AGL
Clouds: scattered clouds at 3500 feet AGL
Weather: no significant weather forecast for this period